METAR AND TAF INFORMATION
METAR FOR LESU
ADDS - METARS form results

(1223 UTC 03 October 2022)
Data provider http://aviationweather.gov/metar/data/
 
METAR text: LESU 031200Z VRB02KT 9999 BKN090 22/11 Q1023
Conditions at: LESU (LA SEU , ES) observed 1200 UTC 03 October 2022
Temperature: 22.0°C (72°F)
Dewpoint: 11.0°C (52°F) [RH = 50%]
Pressure (altimeter): 30.21 inches Hg (1023.0 mb)
Winds: variable direction winds at 2 MPH (2 knots; 1.0 m/s)
Visibility: 6 or more miles (10+ km)
Ceiling: 9000 feet AGL
Clouds: broken clouds at 9000 feet AGL
Weather: no significant weather observed at this time

METAR text: LESU 031130Z 21003KT 170V260 9999 BKN090 20/11 Q1024
Conditions at: LESU (LA SEU , ES) observed 1130 UTC 03 October 2022
Temperature: 20.0°C (68°F)
Dewpoint: 11.0°C (52°F) [RH = 56%]
Pressure (altimeter): 30.24 inches Hg (1024.0 mb)
Winds: from the SSW (210 degrees) at 3 MPH (3 knots; 1.5 m/s)
Visibility: 6 or more miles (10+ km)
Ceiling: 9000 feet AGL
Clouds: broken clouds at 9000 feet AGL
Weather: no significant weather observed at this time

Forecast for: LESU (LA SEU , ES)
Text: TAF LESU 030800Z 0309/0409 VRB03KT 9999 FEW050 TX28/0314Z TN09/0405Z
Forecast period: 0900 UTC 03 October 2022 to 0900 UTC 04 October 2022
Forecast type: FROM: standard forecast or significant change
Winds: variable direction winds at 3 MPH (3 knots; 1.5 m/s)
Visibility: 6 or more miles (10+ km)
Ceiling: at least 12,000 feet AGL
Clouds: few clouds at 5000 feet AGL
Weather: no significant weather forecast for this period
Text: PROB30
Forecast period: 1200 to 1800 UTC 03 October 2022
Forecast type: TEMPORARY: The following changes expected for less than half the time period
Winds: from the SSW (210 degrees) at 12 MPH (10 knots; 5.1 m/s)
Visibility: missing
Ceiling: unknown
Clouds: missing
Weather: no significant weather forecast for this period

 AIRPORT MAP

 RUNWAY INFORMATION
Runway 04 Runway length 4396 ft Runway width 98 ft
Runway elevation 0 ft Runway displaced threshold 0 ft Runway heading 39
Runway 22 Runway length 4396 ft Runway width 98 ft
Runway elevation 0 ft Runway displaced threshold 0 ft Runway heading 219

 AIRPORT FREQUENCIES

 AIRPORT NEAR NAVIGATION AIDS
Type NDB Name Seo De Urgel Frequency 340 KHZ





Powered by Virtual Airlines Manager

Maps by Rafael Santos